Terminal Aerodrome Forecast
Issued by NWS

Home | Current Version | Previous Version | Graphics & Text | Print | Product List | Glossary On
Versions: 1 2 3 4 5 6 7 8 9 10 11 12 13 14 15 16 17 18 19 20 21 22 23 24 25 26 27
000
FTUS43 KLOT 271400 AAA
TAFDPA
TAF AMD
KDPA 271402Z 2714/2812 20012G18KT P6SM OVC007
      TEMPO 2716/2717 27020G30KT 5SM -SHRA OVC015
     FM271700 27016G27KT P6SM OVC020
     FM272300 28012G18KT P6SM BKN025
     FM280200 30009KT P6SM BKN025=

USA.gov is the U.S. government's official web portal to all federal, state and local government web resources and services.